Fertile, IA (50434)

6:37 PM CDT on June 03, 2015 (GMT -0500)
Southwest Fertile | | Change Station
CLOSE
Current Station
Personal Weather Station
Location: Fertile, IA
Elevation: 1181 ft
Nearby Weather Stations

Elev 1181 ft 43.26 °N, 93.43 °W | Updated 24 seconds ago

Mostly Cloudy
Mostly Cloudy
79.7 °F
Feels Like 82 °F
N
4.2
Wind Variable Wind from WSW
Gusts 7.8 mph

Today
High -- | Low -- °F
--% Chance of Precip.
Yesterday
High -- | Low -- °F
Precip. -- in
5:35 AM 8:48 PM
Full, 98% visible
Pressure 29.82 in
Visibility 10.0 miles
Clouds Few 4500 ft
Scattered Clouds 6000 ft
Mostly Cloudy 8000 ft
Heat Index 82 °F
Dew Point 67 °F
Humidity 65%
Rainfall 0.00 in
Snow Depth Not available.
UV 2 out of 12
Pollen 3.70 out of 12
Air Quality Not available.
Flu Activity No Activity
METAR KMCW 032253Z AUTO 23003KT 10SM FEW045 SCT060 BKN080 25/18 A2985 RMK AO2 RAB14E33 SLP098 P0000 T02500183

More Conditions Fewer Conditions

Pressure 29.82 in
Visibility 10.0 miles
Clouds Few 4500 ft
Scattered Clouds 6000 ft
Mostly Cloudy 8000 ft
Heat Index 82 °F
Dew Point 67 °F
Humidity 65%
Rainfall 0.00 in
Snow Depth Not available.
UV 2 out of 12
Pollen 3.70 out of 12
Air Quality Not available.
Flu Activity No Activity
METAR KMCW 032253Z AUTO 23003KT 10SM FEW045 SCT060 BKN080 25/18 A2985 RMK AO2 RAB14E33 SLP098 P0000 T02500183

More Conditions Fewer Conditions

10-Day Weather Forecast

×

Almanac

Astronomy

Jun. 03, 2015 Rise Set
Actual Time
Civil Twilight
Nautical Twilight
Astronomical Twilight
Moon
Length of Visible Light
Length of Day
Tomorrow will be .
, % of the Moon is Illuminated

Today's Extremes

State Highs State Lows

Community

WunderPhotos

Upload Photos

1,826,304 photos uploaded!

WunderBlogs® & News

Nearby

Air Quality

  Air Quality AQ Index Pollutant
Not available.

Snow Depth

Station Depth Elevation

Earthquake Activity

City Distance Mag. Time & Date
Minimum magnitude displayed is 2.5.

Coastal Water Temperatures

Place Temperature

Stations

Nearby Weather Stations

Station Location Temp. Windchill Dew Point Humidity Wind Precip. Elev Updated Type